sensor_id;sensor_type;location;lat;lon;timestamp;noise_LAeq;noise_LA_min;noise_LA_max;noise_LA01;noise_LA95
50333;Laerm;36239;48.132;-1.210;2024-02-23T00:00:43;39.31;35.66;58.00;;
50333;Laerm;36239;48.132;-1.210;2024-02-23T00:03:09;44.99;35.36;69.82;;
50333;Laerm;36239;48.132;-1.210;2024-02-23T00:05:36;38.79;34.69;53.18;;
50333;Laerm;36239;48.132;-1.210;2024-02-23T00:08:02;38.98;35.66;48.39;;
50333;Laerm;36239;48.132;-1.210;2024-02-23T00:10:28;38.69;33.90;46.62;;
50333;Laerm;36239;48.132;-1.210;2024-02-23T00:12:54;38.98;34.69;48.03;;
50333;Laerm;36239;48.132;-1.210;2024-02-23T00:15:20;38.80;32.35;54.42;;
50333;Laerm;36239;48.132;-1.210;2024-02-23T00:17:46;38.24;33.90;41.89;;
50333;Laerm;36239;48.132;-1.210;2024-02-23T00:20:12;38.26;33.90;43.68;;
50333;Laerm;36239;48.132;-1.210;2024-02-23T00:22:38;38.30;33.90;42.47;;
50333;Laerm;36239;48.132;-1.210;2024-02-23T00:25:04;38.60;34.31;44.15;;
50333;Laerm;36239;48.132;-1.210;2024-02-23T00:27:30;38.42;33.90;43.81;;
50333;Laerm;36239;48.132;-1.210;2024-02-23T00:29:56;39.25;33.97;52.63;;
50333;Laerm;36239;48.132;-1.210;2024-02-23T00:32:22;38.89;34.31;46.35;;
50333;Laerm;36239;48.132;-1.210;2024-02-23T00:34:48;38.95;34.69;53.03;;
50333;Laerm;36239;48.132;-1.210;2024-02-23T00:37:14;41.61;34.69;69.46;;
50333;Laerm;36239;48.132;-1.210;2024-02-23T00:39:40;38.69;33.90;43.72;;
50333;Laerm;36239;48.132;-1.210;2024-02-23T00:42:06;39.45;35.36;53.69;;
50333;Laerm;36239;48.132;-1.210;2024-02-23T00:44:33;38.87;34.31;42.13;;
50333;Laerm;36239;48.132;-1.210;2024-02-23T00:46:59;39.06;34.69;41.61;;
50333;Laerm;36239;48.132;-1.210;2024-02-23T00:49:27;38.92;35.04;42.22;;
50333;Laerm;36239;48.132;-1.210;2024-02-23T00:51:54;39.19;33.90;47.36;;
50333;Laerm;36239;48.132;-1.210;2024-02-23T00:54:21;39.29;35.04;54.16;;
50333;Laerm;36239;48.132;-1.210;2024-02-23T00:56:47;39.06;33.44;47.24;;
50333;Laerm;36239;48.132;-1.210;2024-02-23T00:59:13;41.40;35.04;66.12;;
50333;Laerm;36239;48.132;-1.210;2024-02-23T01:01:39;39.12;34.69;44.19;;
50333;Laerm;36239;48.132;-1.210;2024-02-23T01:04:05;38.46;34.31;42.09;;
50333;Laerm;36239;48.132;-1.210;2024-02-23T01:06:31;38.77;33.90;44.11;;
50333;Laerm;36239;48.132;-1.210;2024-02-23T01:08:57;38.78;34.31;42.19;;
50333;Laerm;36239;48.132;-1.210;2024-02-23T01:11:23;38.83;34.31;46.69;;
50333;Laerm;36239;48.132;-1.210;2024-02-23T01:13:49;38.70;33.90;41.75;;
50333;Laerm;36239;48.132;-1.210;2024-02-23T01:16:15;38.98;34.31;44.27;;
50333;Laerm;36239;48.132;-1.210;2024-02-23T01:18:41;38.84;34.69;43.24;;
50333;Laerm;36239;48.132;-1.210;2024-02-23T01:21:07;39.00;34.69;45.20;;
50333;Laerm;36239;48.132;-1.210;2024-02-23T01:23:33;38.69;33.90;42.09;;
50333;Laerm;36239;48.132;-1.210;2024-02-23T01:25:59;39.34;35.04;52.47;;
50333;Laerm;36239;48.132;-1.210;2024-02-23T01:28:26;40.20;35.66;48.36;;
50333;Laerm;36239;48.132;-1.210;2024-02-23T01:30:52;40.89;34.69;68.40;;
50333;Laerm;36239;48.132;-1.210;2024-02-23T01:33:18;39.82;34.69;55.86;;
50333;Laerm;36239;48.132;-1.210;2024-02-23T01:35:44;39.61;35.04;56.17;;
50333;Laerm;36239;48.132;-1.210;2024-02-23T01:38:10;52.66;35.04;82.33;;
50333;Laerm;36239;48.132;-1.210;2024-02-23T01:40:36;47.87;35.04;72.73;;
50333;Laerm;36239;48.132;-1.210;2024-02-23T01:43:03;38.94;35.36;48.21;;
50333;Laerm;36239;48.132;-1.210;2024-02-23T01:45:29;41.04;35.66;65.72;;
50333;Laerm;36239;48.132;-1.210;2024-02-23T01:47:56;39.33;34.69;45.57;;
50333;Laerm;36239;48.132;-1.210;2024-02-23T01:50:22;38.96;34.31;54.63;;
50333;Laerm;36239;48.132;-1.210;2024-02-23T01:52:49;38.65;34.69;46.48;;
50333;Laerm;36239;48.132;-1.210;2024-02-23T01:55:18;40.35;34.31;63.94;;
50333;Laerm;36239;48.132;-1.210;2024-02-23T01:57:45;38.63;34.31;44.23;;
50333;Laerm;36239;48.132;-1.210;2024-02-23T02:00:11;45.30;35.31;76.21;;
50333;Laerm;36239;48.132;-1.210;2024-02-23T02:02:41;41.14;34.69;69.50;;
50333;Laerm;36239;48.132;-1.210;2024-02-23T02:05:07;38.79;34.31;55.69;;
50333;Laerm;36239;48.132;-1.210;2024-02-23T02:07:33;38.81;34.69;49.55;;
50333;Laerm;36239;48.132;-1.210;2024-02-23T02:09:59;38.84;33.90;47.96;;
50333;Laerm;36239;48.132;-1.210;2024-02-23T02:12:26;39.09;35.04;45.27;;
50333;Laerm;36239;48.132;-1.210;2024-02-23T02:14:52;38.71;34.69;42.53;;
50333;Laerm;36239;48.132;-1.210;2024-02-23T02:17:18;38.91;34.31;51.80;;
50333;Laerm;36239;48.132;-1.210;2024-02-23T02:19:47;38.94;35.04;48.48;;
50333;Laerm;36239;48.132;-1.210;2024-02-23T02:22:13;38.63;33.90;41.96;;
50333;Laerm;36239;48.132;-1.210;2024-02-23T02:24:39;39.13;33.90;57.39;;
50333;Laerm;36239;48.132;-1.210;2024-02-23T02:27:08;38.34;33.44;41.38;;
50333;Laerm;36239;48.132;-1.210;2024-02-23T02:29:35;38.52;33.90;49.49;;
50333;Laerm;36239;48.132;-1.210;2024-02-23T02:32:01;38.24;33.90;43.34;;
50333;Laerm;36239;48.132;-1.210;2024-02-23T02:34:27;38.55;33.90;41.96;;
50333;Laerm;36239;48.132;-1.210;2024-02-23T02:36:54;39.09;34.69;44.62;;
50333;Laerm;36239;48.132;-1.210;2024-02-23T02:39:20;39.24;34.31;50.51;;
50333;Laerm;36239;48.132;-1.210;2024-02-23T02:41:49;39.36;35.66;50.77;;
50333;Laerm;36239;48.132;-1.210;2024-02-23T02:44:15;38.82;34.31;42.59;;
50333;Laerm;36239;48.132;-1.210;2024-02-23T02:46:42;39.18;35.04;54.00;;
50333;Laerm;36239;48.132;-1.210;2024-02-23T02:49:08;39.21;34.31;47.59;;
50333;Laerm;36239;48.132;-1.210;2024-02-23T02:51:34;39.48;35.36;46.80;;
50333;Laerm;36239;48.132;-1.210;2024-02-23T02:54:00;40.07;36.20;55.08;;
50333;Laerm;36239;48.132;-1.210;2024-02-23T02:56:26;39.45;35.66;47.40;;
50333;Laerm;36239;48.132;-1.210;2024-02-23T02:58:52;39.96;35.04;57.52;;
50333;Laerm;36239;48.132;-1.210;2024-02-23T03:01:18;39.54;35.04;59.67;;
50333;Laerm;36239;48.132;-1.210;2024-02-23T03:03:44;39.84;33.44;56.67;;
50333;Laerm;36239;48.132;-1.210;2024-02-23T03:06:10;40.74;35.04;63.83;;
50333;Laerm;36239;48.132;-1.210;2024-02-23T03:08:36;39.15;35.66;56.26;;
50333;Laerm;36239;48.132;-1.210;2024-02-23T03:11:02;39.08;33.90;56.18;;
50333;Laerm;36239;48.132;-1.210;2024-02-23T03:13:28;38.92;35.36;42.42;;
50333;Laerm;36239;48.132;-1.210;2024-02-23T03:15:54;40.20;36.45;60.49;;
50333;Laerm;36239;48.132;-1.210;2024-02-23T03:18:20;39.45;35.66;48.15;;
50333;Laerm;36239;48.132;-1.210;2024-02-23T03:20:46;39.33;35.66;43.24;;
50333;Laerm;36239;48.132;-1.210;2024-02-23T03:23:12;39.80;36.20;48.43;;
50333;Laerm;36239;48.132;-1.210;2024-02-23T03:25:38;39.50;34.69;43.99;;
50333;Laerm;36239;48.132;-1.210;2024-02-23T03:28:04;39.54;35.94;44.19;;
50333;Laerm;36239;48.132;-1.210;2024-02-23T03:30:30;39.60;35.04;48.03;;
50333;Laerm;36239;48.132;-1.210;2024-02-23T03:32:56;40.13;36.20;49.62;;
50333;Laerm;36239;48.132;-1.210;2024-02-23T03:35:22;41.47;36.45;64.89;;
50333;Laerm;36239;48.132;-1.210;2024-02-23T03:37:48;39.94;36.20;42.65;;
50333;Laerm;36239;48.132;-1.210;2024-02-23T03:40:14;39.96;36.20;45.80;;
50333;Laerm;36239;48.132;-1.210;2024-02-23T03:42:40;39.51;35.36;45.14;;
50333;Laerm;36239;48.132;-1.210;2024-02-23T03:45:06;39.66;36.20;47.83;;
50333;Laerm;36239;48.132;-1.210;2024-02-23T03:47:32;39.93;32.93;55.42;;
50333;Laerm;36239;48.132;-1.210;2024-02-23T03:49:58;41.33;34.69;64.50;;
50333;Laerm;36239;48.132;-1.210;2024-02-23T03:52:24;45.71;36.45;61.97;;
50333;Laerm;36239;48.132;-1.210;2024-02-23T03:54:50;39.41;36.10;43.34;;
50333;Laerm;36239;48.132;-1.210;2024-02-23T03:57:17;38.87;35.04;41.75;;
50333;Laerm;36239;48.132;-1.210;2024-02-23T03:59:53;38.78;34.69;46.45;;
50333;Laerm;36239;48.132;-1.210;2024-02-23T04:02:19;39.01;35.04;44.69;;
50333;Laerm;36239;48.132;-1.210;2024-02-23T04:04:45;46.27;35.66;71.38;;
50333;Laerm;36239;48.132;-1.210;2024-02-23T04:07:11;46.94;37.88;63.73;;
50333;Laerm;36239;48.132;-1.210;2024-02-23T04:09:37;44.98;36.69;57.68;;
50333;Laerm;36239;48.132;-1.210;2024-02-23T04:12:03;40.86;36.91;48.12;;
50333;Laerm;36239;48.132;-1.210;2024-02-23T04:14:29;39.81;36.34;42.98;;
50333;Laerm;36239;48.132;-1.210;2024-02-23T04:16:55;39.99;35.86;49.85;;
50333;Laerm;36239;48.132;-1.210;2024-02-23T04:19:21;39.90;35.66;43.58;;
50333;Laerm;36239;48.132;-1.210;2024-02-23T04:21:47;40.18;36.45;57.80;;
50333;Laerm;36239;48.132;-1.210;2024-02-23T04:24:13;39.21;35.36;42.35;;
50333;Laerm;36239;48.132;-1.210;2024-02-23T04:26:39;39.24;35.36;42.88;;
50333;Laerm;36239;48.132;-1.210;2024-02-23T04:29:05;39.78;36.45;48.20;;
50333;Laerm;36239;48.132;-1.210;2024-02-23T04:31:31;52.50;36.69;81.20;;
50333;Laerm;36239;48.132;-1.210;2024-02-23T04:33:57;39.80;35.36;44.58;;
50333;Laerm;36239;48.132;-1.210;2024-02-23T04:36:23;39.96;35.04;46.20;;
50333;Laerm;36239;48.132;-1.210;2024-02-23T04:38:49;39.50;35.66;45.45;;
50333;Laerm;36239;48.132;-1.210;2024-02-23T04:41:15;41.94;36.45;49.18;;
50333;Laerm;36239;48.132;-1.210;2024-02-23T04:43:45;41.32;36.69;46.62;;
50333;Laerm;36239;48.132;-1.210;2024-02-23T04:46:10;40.19;37.32;43.72;;
50333;Laerm;36239;48.132;-1.210;2024-02-23T04:48:38;39.75;36.69;42.88;;
50333;Laerm;36239;48.132;-1.210;2024-02-23T04:51:04;39.82;36.20;48.16;;
50333;Laerm;36239;48.132;-1.210;2024-02-23T04:53:30;40.49;36.91;44.90;;
50333;Laerm;36239;48.132;-1.210;2024-02-23T04:55:56;40.04;36.20;58.86;;
50333;Laerm;36239;48.132;-1.210;2024-02-23T04:58:22;39.66;36.20;44.87;;
50333;Laerm;36239;48.132;-1.210;2024-02-23T05:00:48;38.88;35.66;43.14;;
50333;Laerm;36239;48.132;-1.210;2024-02-23T05:03:14;44.55;35.36;57.03;;
50333;Laerm;36239;48.132;-1.210;2024-02-23T05:05:41;39.44;35.66;43.63;;
50333;Laerm;36239;48.132;-1.210;2024-02-23T05:08:07;39.33;35.94;42.09;;
50333;Laerm;36239;48.132;-1.210;2024-02-23T05:10:33;39.89;35.66;58.98;;
50333;Laerm;36239;48.132;-1.210;2024-02-23T05:12:59;39.40;35.04;48.10;;
50333;Laerm;36239;48.132;-1.210;2024-02-23T05:15:25;39.74;36.20;47.04;;
50333;Laerm;36239;48.132;-1.210;2024-02-23T05:17:51;41.10;36.45;57.31;;
50333;Laerm;36239;48.132;-1.210;2024-02-23T05:20:17;39.36;35.36;43.19;;
50333;Laerm;36239;48.132;-1.210;2024-02-23T05:22:43;39.53;36.20;46.82;;
50333;Laerm;36239;48.132;-1.210;2024-02-23T05:25:09;40.69;37.88;48.63;;
50333;Laerm;36239;48.132;-1.210;2024-02-23T05:27:35;42.90;37.70;63.37;;
50333;Laerm;36239;48.132;-1.210;2024-02-23T05:30:01;44.29;37.32;73.00;;
50333;Laerm;36239;48.132;-1.210;2024-02-23T05:32:27;42.93;37.52;64.88;;
50333;Laerm;36239;48.132;-1.210;2024-02-23T05:34:53;42.04;36.45;66.37;;
50333;Laerm;36239;48.132;-1.210;2024-02-23T05:37:20;44.13;36.98;60.37;;
50333;Laerm;36239;48.132;-1.210;2024-02-23T05:39:46;42.19;37.52;53.10;;
50333;Laerm;36239;48.132;-1.210;2024-02-23T05:42:12;40.75;36.91;52.60;;
50333;Laerm;36239;48.132;-1.210;2024-02-23T05:44:39;42.87;38.05;54.14;;
50333;Laerm;36239;48.132;-1.210;2024-02-23T05:47:05;42.98;37.70;56.90;;
50333;Laerm;36239;48.132;-1.210;2024-02-23T05:49:31;43.90;37.52;56.13;;
50333;Laerm;36239;48.132;-1.210;2024-02-23T05:51:57;41.21;37.52;54.85;;
50333;Laerm;36239;48.132;-1.210;2024-02-23T05:54:23;41.32;38.05;46.23;;
50333;Laerm;36239;48.132;-1.210;2024-02-23T05:56:49;41.25;37.88;44.27;;
50333;Laerm;36239;48.132;-1.210;2024-02-23T05:59:15;40.55;37.32;44.35;;
50333;Laerm;36239;48.132;-1.210;2024-02-23T06:01:41;41.01;36.91;55.82;;
50333;Laerm;36239;48.132;-1.210;2024-02-23T06:04:07;40.85;36.69;55.52;;
50333;Laerm;36239;48.132;-1.210;2024-02-23T06:06:33;44.61;37.88;67.51;;
50333;Laerm;36239;48.132;-1.210;2024-02-23T06:08:59;41.01;37.88;48.23;;
50333;Laerm;36239;48.132;-1.210;2024-02-23T06:11:26;40.97;36.69;48.10;;
50333;Laerm;36239;48.132;-1.210;2024-02-23T06:13:52;41.71;38.81;48.66;;
50333;Laerm;36239;48.132;-1.210;2024-02-23T06:16:18;42.27;38.52;64.75;;
50333;Laerm;36239;48.132;-1.210;2024-02-23T06:18:44;41.74;38.67;47.59;;
50333;Laerm;36239;48.132;-1.210;2024-02-23T06:21:16;42.37;38.05;60.10;;
50333;Laerm;36239;48.132;-1.210;2024-02-23T06:23:43;42.07;38.95;50.09;;
50333;Laerm;36239;48.132;-1.210;2024-02-23T06:26:09;43.96;39.34;60.44;;
50333;Laerm;36239;48.132;-1.210;2024-02-23T06:28:36;42.56;39.58;55.04;;
50333;Laerm;36239;48.132;-1.210;2024-02-23T06:31:05;44.84;40.13;58.53;;
50333;Laerm;36239;48.132;-1.210;2024-02-23T06:33:31;43.85;40.80;58.48;;
50333;Laerm;36239;48.132;-1.210;2024-02-23T06:35:57;44.68;40.53;59.98;;
50333;Laerm;36239;48.132;-1.210;2024-02-23T06:38:23;43.96;40.33;59.37;;
50333;Laerm;36239;48.132;-1.210;2024-02-23T06:40:49;43.48;40.53;54.19;;
50333;Laerm;36239;48.132;-1.210;2024-02-23T06:43:15;43.68;40.89;57.72;;
50333;Laerm;36239;48.132;-1.210;2024-02-23T06:45:41;49.79;40.62;68.07;;
50333;Laerm;36239;48.132;-1.210;2024-02-23T06:48:08;53.69;40.23;73.75;;
50333;Laerm;36239;48.132;-1.210;2024-02-23T06:50:35;45.25;40.98;59.81;;
50333;Laerm;36239;48.132;-1.210;2024-02-23T06:53:00;43.25;40.80;55.74;;
50333;Laerm;36239;48.132;-1.210;2024-02-23T06:55:28;43.09;40.36;52.85;;
50333;Laerm;36239;48.132;-1.210;2024-02-23T06:57:54;45.98;40.80;63.28;;
50333;Laerm;36239;48.132;-1.210;2024-02-23T07:00:20;44.60;41.14;60.71;;
50333;Laerm;36239;48.132;-1.210;2024-02-23T07:02:49;43.87;40.98;65.06;;
50333;Laerm;36239;48.132;-1.210;2024-02-23T07:05:15;43.54;41.38;48.07;;
50333;Laerm;36239;48.132;-1.210;2024-02-23T07:07:41;44.27;41.06;54.26;;
50333;Laerm;36239;48.132;-1.210;2024-02-23T07:10:08;43.52;41.61;51.80;;
50333;Laerm;36239;48.132;-1.210;2024-02-23T07:12:35;43.86;41.30;52.39;;
50333;Laerm;36239;48.132;-1.210;2024-02-23T07:15:00;43.86;41.30;57.08;;
50333;Laerm;36239;48.132;-1.210;2024-02-23T07:17:27;44.30;41.96;52.44;;
50333;Laerm;36239;48.132;-1.210;2024-02-23T07:19:54;44.72;42.47;51.56;;
50333;Laerm;36239;48.132;-1.210;2024-02-23T07:22:20;44.58;41.89;55.08;;
50333;Laerm;36239;48.132;-1.210;2024-02-23T07:24:46;46.19;41.68;60.79;;
50333;Laerm;36239;48.132;-1.210;2024-02-23T07:27:12;45.22;42.09;60.47;;
50333;Laerm;36239;48.132;-1.210;2024-02-23T07:29:38;44.66;41.96;56.61;;
50333;Laerm;36239;48.132;-1.210;2024-02-23T07:32:04;48.40;42.09;65.41;;
50333;Laerm;36239;48.132;-1.210;2024-02-23T07:34:30;46.23;41.82;60.98;;
50333;Laerm;36239;48.132;-1.210;2024-02-23T07:36:57;51.61;42.47;68.39;;
50333;Laerm;36239;48.132;-1.210;2024-02-23T07:39:23;48.33;42.41;63.90;;
50333;Laerm;36239;48.132;-1.210;2024-02-23T07:41:49;48.75;42.22;63.72;;
50333;Laerm;36239;48.132;-1.210;2024-02-23T07:44:15;51.83;42.09;71.49;;
50333;Laerm;36239;48.132;-1.210;2024-02-23T07:46:41;45.63;41.89;60.47;;
50333;Laerm;36239;48.132;-1.210;2024-02-23T07:49:07;43.98;41.14;53.41;;
50333;Laerm;36239;48.132;-1.210;2024-02-23T07:51:33;43.92;41.22;55.49;;
50333;Laerm;36239;48.132;-1.210;2024-02-23T07:53:59;42.83;40.13;51.78;;
50333;Laerm;36239;48.132;-1.210;2024-02-23T07:56:25;46.16;39.81;69.44;;
50333;Laerm;36239;48.132;-1.210;2024-02-23T07:58:51;43.30;39.70;51.36;;
50333;Laerm;36239;48.132;-1.210;2024-02-23T08:01:17;42.81;40.62;50.70;;
50333;Laerm;36239;48.132;-1.210;2024-02-23T08:03:43;42.69;40.33;54.53;;
50333;Laerm;36239;48.132;-1.210;2024-02-23T08:06:09;43.26;40.43;60.58;;
50333;Laerm;36239;48.132;-1.210;2024-02-23T08:08:35;55.81;39.70;86.43;;
50333;Laerm;36239;48.132;-1.210;2024-02-23T08:11:01;44.19;39.08;68.64;;
50333;Laerm;36239;48.132;-1.210;2024-02-23T08:13:28;47.90;39.92;69.95;;
50333;Laerm;36239;48.132;-1.210;2024-02-23T08:15:54;48.04;39.08;70.30;;
50333;Laerm;36239;48.132;-1.210;2024-02-23T08:18:20;42.52;39.46;55.20;;
50333;Laerm;36239;48.132;-1.210;2024-02-23T08:20:48;43.95;39.58;71.45;;
50333;Laerm;36239;48.132;-1.210;2024-02-23T08:23:14;45.78;40.03;71.66;;
50333;Laerm;36239;48.132;-1.210;2024-02-23T08:25:40;42.80;39.21;54.83;;
50333;Laerm;36239;48.132;-1.210;2024-02-23T08:28:06;44.29;39.34;63.97;;
50333;Laerm;36239;48.132;-1.210;2024-02-23T08:30:32;42.62;39.11;60.41;;
50333;Laerm;36239;48.132;-1.210;2024-02-23T08:32:59;43.61;39.08;57.40;;
50333;Laerm;36239;48.132;-1.210;2024-02-23T08:35:26;42.93;39.92;57.99;;
50333;Laerm;36239;48.132;-1.210;2024-02-23T08:37:52;41.94;39.21;46.13;;
50333;Laerm;36239;48.132;-1.210;2024-02-23T08:40:18;44.86;38.95;70.42;;
50333;Laerm;36239;48.132;-1.210;2024-02-23T08:42:44;49.28;40.71;66.23;;
50333;Laerm;36239;48.132;-1.210;2024-02-23T08:45:11;46.40;39.58;73.68;;
50333;Laerm;36239;48.132;-1.210;2024-02-23T08:47:39;53.19;39.21;82.49;;
50333;Laerm;36239;48.132;-1.210;2024-02-23T08:50:05;51.71;38.21;77.16;;
50333;Laerm;36239;48.132;-1.210;2024-02-23T08:52:32;43.67;39.21;66.28;;
50333;Laerm;36239;48.132;-1.210;2024-02-23T08:54:58;46.17;39.21;72.76;;
50333;Laerm;36239;48.132;-1.210;2024-02-23T08:57:24;49.39;39.08;74.23;;
50333;Laerm;36239;48.132;-1.210;2024-02-23T08:59:50;48.15;39.81;77.06;;
50333;Laerm;36239;48.132;-1.210;2024-02-23T09:02:16;43.67;39.08;63.69;;
50333;Laerm;36239;48.132;-1.210;2024-02-23T09:04:42;51.89;38.95;80.87;;
50333;Laerm;36239;48.132;-1.210;2024-02-23T09:07:10;53.38;38.81;85.46;;
50333;Laerm;36239;48.132;-1.210;2024-02-23T09:09:36;47.85;40.33;72.88;;
50333;Laerm;36239;48.132;-1.210;2024-02-23T09:12:02;46.66;40.23;63.40;;
50333;Laerm;36239;48.132;-1.210;2024-02-23T09:14:28;54.07;39.70;83.91;;
50333;Laerm;36239;48.132;-1.210;2024-02-23T09:16:55;47.52;40.98;69.76;;
50333;Laerm;36239;48.132;-1.210;2024-02-23T09:19:21;54.39;40.03;84.47;;
50333;Laerm;36239;48.132;-1.210;2024-02-23T09:21:47;49.08;39.58;77.94;;
50333;Laerm;36239;48.132;-1.210;2024-02-23T09:24:13;46.62;39.58;60.30;;
50333;Laerm;36239;48.132;-1.210;2024-02-23T09:26:39;47.91;40.62;60.45;;
50333;Laerm;36239;48.132;-1.210;2024-02-23T09:29:05;49.70;41.53;63.86;;
50333;Laerm;36239;48.132;-1.210;2024-02-23T09:31:31;51.56;41.53;72.58;;
50333;Laerm;36239;48.132;-1.210;2024-02-23T09:33:57;49.38;41.22;64.98;;
50333;Laerm;36239;48.132;-1.210;2024-02-23T09:36:23;54.51;41.96;73.10;;
50333;Laerm;36239;48.132;-1.210;2024-02-23T09:38:50;52.06;41.75;70.54;;
50333;Laerm;36239;48.132;-1.210;2024-02-23T09:41:20;53.67;42.53;76.13;;
50333;Laerm;36239;48.132;-1.210;2024-02-23T09:43:47;52.71;41.46;73.00;;
50333;Laerm;36239;48.132;-1.210;2024-02-23T09:46:17;58.65;40.62;90.68;;
50333;Laerm;36239;48.132;-1.210;2024-02-23T09:48:43;52.05;42.03;76.26;;
50333;Laerm;36239;48.132;-1.210;2024-02-23T09:51:10;51.35;41.06;72.51;;
50333;Laerm;36239;48.132;-1.210;2024-02-23T09:53:39;49.31;40.98;65.41;;
50333;Laerm;36239;48.132;-1.210;2024-02-23T09:56:06;51.57;40.89;69.90;;
50333;Laerm;36239;48.132;-1.210;2024-02-23T09:58:34;51.80;41.68;67.08;;
50333;Laerm;36239;48.132;-1.210;2024-02-23T10:01:01;55.19;42.03;85.13;;
50333;Laerm;36239;48.132;-1.210;2024-02-23T10:03:28;49.84;41.61;67.55;;
50333;Laerm;36239;48.132;-1.210;2024-02-23T10:05:56;45.45;39.21;68.52;;
50333;Laerm;36239;48.132;-1.210;2024-02-23T10:08:22;44.87;40.13;61.13;;
50333;Laerm;36239;48.132;-1.210;2024-02-23T10:10:49;44.13;39.08;67.35;;
50333;Laerm;36239;48.132;-1.210;2024-02-23T10:13:19;45.30;39.34;71.34;;
50333;Laerm;36239;48.132;-1.210;2024-02-23T10:15:46;43.30;39.46;59.27;;
50333;Laerm;36239;48.132;-1.210;2024-02-23T10:18:12;42.84;39.21;59.98;;
50333;Laerm;36239;48.132;-1.210;2024-02-23T10:20:39;44.19;39.34;62.75;;
50333;Laerm;36239;48.132;-1.210;2024-02-23T10:23:05;45.60;39.34;64.52;;
50333;Laerm;36239;48.132;-1.210;2024-02-23T10:25:33;43.85;39.21;64.10;;
50333;Laerm;36239;48.132;-1.210;2024-02-23T10:28:00;44.73;38.87;61.50;;
50333;Laerm;36239;48.132;-1.210;2024-02-23T10:30:26;43.47;37.88;56.85;;
50333;Laerm;36239;48.132;-1.210;2024-02-23T10:32:54;45.22;39.70;72.61;;
50333;Laerm;36239;48.132;-1.210;2024-02-23T10:35:21;52.67;38.47;82.73;;
50333;Laerm;36239;48.132;-1.210;2024-02-23T10:37:48;50.49;39.08;82.02;;
50333;Laerm;36239;48.132;-1.210;2024-02-23T10:40:16;46.63;39.70;70.72;;
50333;Laerm;36239;48.132;-1.210;2024-02-23T10:42:43;44.42;37.88;67.84;;
50333;Laerm;36239;48.132;-1.210;2024-02-23T10:45:19;49.46;39.08;79.17;;
50333;Laerm;36239;48.132;-1.210;2024-02-23T10:47:50;43.01;38.21;70.31;;
50333;Laerm;36239;48.132;-1.210;2024-02-23T10:50:16;44.08;38.52;66.03;;
50333;Laerm;36239;48.132;-1.210;2024-02-23T10:52:45;52.16;39.08;82.87;;
50333;Laerm;36239;48.132;-1.210;2024-02-23T10:55:13;41.78;38.37;54.05;;
50333;Laerm;36239;48.132;-1.210;2024-02-23T10:57:40;42.81;38.52;65.15;;
50333;Laerm;36239;48.132;-1.210;2024-02-23T11:00:07;43.49;38.95;65.01;;
50333;Laerm;36239;48.132;-1.210;2024-02-23T11:02:40;41.96;38.37;59.42;;
50333;Laerm;36239;48.132;-1.210;2024-02-23T11:05:07;44.44;38.67;59.30;;
50333;Laerm;36239;48.132;-1.210;2024-02-23T11:07:37;48.38;40.80;73.26;;
50333;Laerm;36239;48.132;-1.210;2024-02-23T11:10:04;47.93;40.89;66.66;;
50333;Laerm;36239;48.132;-1.210;2024-02-23T11:12:30;61.96;41.38;87.89;;
50333;Laerm;36239;48.132;-1.210;2024-02-23T11:14:57;60.94;41.61;89.76;;
50333;Laerm;36239;48.132;-1.210;2024-02-23T11:17:26;49.48;40.43;78.03;;
50333;Laerm;36239;48.132;-1.210;2024-02-23T11:19:53;47.41;40.43;65.61;;
50333;Laerm;36239;48.132;-1.210;2024-02-23T11:22:33;59.55;40.03;89.37;;
50333;Laerm;36239;48.132;-1.210;2024-02-23T11:25:01;47.23;40.62;62.11;;
50333;Laerm;36239;48.132;-1.210;2024-02-23T11:27:35;54.40;40.43;81.55;;
50333;Laerm;36239;48.132;-1.210;2024-02-23T11:30:03;48.83;39.70;72.24;;
50333;Laerm;36239;48.132;-1.210;2024-02-23T11:32:39;61.08;40.71;93.65;;
50333;Laerm;36239;48.132;-1.210;2024-02-23T11:35:17;46.51;40.03;66.15;;
50333;Laerm;36239;48.132;-1.210;2024-02-23T11:37:53;55.61;41.03;79.63;;
50333;Laerm;36239;48.132;-1.210;2024-02-23T11:40:29;47.19;40.53;69.40;;
50333;Laerm;36239;48.132;-1.210;2024-02-23T11:42:56;52.47;40.53;81.87;;
50333;Laerm;36239;48.132;-1.210;2024-02-23T11:45:22;47.07;40.62;69.18;;
50333;Laerm;36239;48.132;-1.210;2024-02-23T11:47:49;50.05;40.89;68.80;;
50333;Laerm;36239;48.132;-1.210;2024-02-23T11:50:15;50.96;40.80;70.55;;
50333;Laerm;36239;48.132;-1.210;2024-02-23T11:52:42;56.57;40.98;83.79;;
50333;Laerm;36239;48.132;-1.210;2024-02-23T11:55:08;57.91;41.96;85.79;;
50333;Laerm;36239;48.132;-1.210;2024-02-23T11:57:34;64.97;43.77;94.69;;
50333;Laerm;36239;48.132;-1.210;2024-02-23T12:00:01;59.15;40.43;85.44;;
50333;Laerm;36239;48.132;-1.210;2024-02-23T12:02:28;51.89;41.14;75.80;;
50333;Laerm;36239;48.132;-1.210;2024-02-23T12:04:55;53.87;41.22;77.10;;
50333;Laerm;36239;48.132;-1.210;2024-02-23T12:07:21;54.58;40.71;82.27;;
50333;Laerm;36239;48.132;-1.210;2024-02-23T12:09:47;51.69;41.06;71.53;;
50333;Laerm;36239;48.132;-1.210;2024-02-23T12:12:14;52.69;41.14;80.50;;
50333;Laerm;36239;48.132;-1.210;2024-02-23T12:14:40;52.63;42.22;74.26;;
50333;Laerm;36239;48.132;-1.210;2024-02-23T12:17:07;57.61;42.29;84.49;;
50333;Laerm;36239;48.132;-1.210;2024-02-23T12:19:38;62.83;42.35;89.32;;
50333;Laerm;36239;48.132;-1.210;2024-02-23T12:22:04;63.13;40.43;90.20;;
50333;Laerm;36239;48.132;-1.210;2024-02-23T12:24:31;65.42;42.09;92.78;;
50333;Laerm;36239;48.132;-1.210;2024-02-23T12:26:57;57.94;43.04;88.84;;
50333;Laerm;36239;48.132;-1.210;2024-02-23T12:29:23;57.51;42.76;82.51;;
50333;Laerm;36239;48.132;-1.210;2024-02-23T12:31:49;46.81;39.92;62.58;;
50333;Laerm;36239;48.132;-1.210;2024-02-23T12:34:15;44.48;38.37;59.67;;
50333;Laerm;36239;48.132;-1.210;2024-02-23T12:36:42;51.73;38.05;77.98;;
50333;Laerm;36239;48.132;-1.210;2024-02-23T12:39:08;53.26;39.21;82.94;;
50333;Laerm;36239;48.132;-1.210;2024-02-23T12:41:34;47.03;38.32;73.47;;
50333;Laerm;36239;48.132;-1.210;2024-02-23T12:44:00;42.09;38.95;54.96;;
50333;Laerm;36239;48.132;-1.210;2024-02-23T12:46:26;49.81;38.37;70.88;;
50333;Laerm;36239;48.132;-1.210;2024-02-23T12:48:52;51.43;38.52;82.15;;
50333;Laerm;36239;48.132;-1.210;2024-02-23T12:51:19;51.59;38.67;80.83;;
50333;Laerm;36239;48.132;-1.210;2024-02-23T12:53:45;53.25;37.52;82.14;;
50333;Laerm;36239;48.132;-1.210;2024-02-23T12:56:12;52.27;38.52;85.27;;
50333;Laerm;36239;48.132;-1.210;2024-02-23T12:58:39;46.72;38.05;72.25;;
50333;Laerm;36239;48.132;-1.210;2024-02-23T13:01:06;59.60;38.52;91.88;;
50333;Laerm;36239;48.132;-1.210;2024-02-23T13:03:33;44.72;38.67;61.62;;
50333;Laerm;36239;48.132;-1.210;2024-02-23T13:05:59;59.15;38.21;90.78;;
50333;Laerm;36239;48.132;-1.210;2024-02-23T13:08:25;45.64;38.67;69.75;;
50333;Laerm;36239;48.132;-1.210;2024-02-23T13:10:52;52.83;38.37;83.32;;
50333;Laerm;36239;48.132;-1.210;2024-02-23T13:13:18;57.31;39.46;85.45;;
50333;Laerm;36239;48.132;-1.210;2024-02-23T13:15:45;44.85;38.05;70.85;;
50333;Laerm;36239;48.132;-1.210;2024-02-23T13:18:11;55.71;38.95;86.25;;
50333;Laerm;36239;48.132;-1.210;2024-02-23T13:20:37;56.21;38.37;87.37;;
50333;Laerm;36239;48.132;-1.210;2024-02-23T13:23:04;46.95;38.81;72.26;;
50333;Laerm;36239;48.132;-1.210;2024-02-23T13:25:30;42.81;38.81;60.24;;
50333;Laerm;36239;48.132;-1.210;2024-02-23T13:27:57;61.24;40.13;90.87;;